createdAt,value
2022-11-29T00:01:25.767Z,126.93
2022-11-29T00:03:53.039Z,116.63
2022-11-29T00:06:22.413Z,138.15
2022-11-29T00:08:49.628Z,125.63
2022-11-29T00:11:38.809Z,105.22
2022-11-29T00:14:06.296Z,121.68
2022-11-29T00:16:33.219Z,121.65
2022-11-29T00:18:59.720Z,96.72
2022-11-29T00:21:26.216Z,139.05
2022-11-29T00:23:52.775Z,127.47
2022-11-29T00:26:19.311Z,145.55
2022-11-29T00:28:45.783Z,135.73
2022-11-29T00:31:13.870Z,127.95
2022-11-29T00:33:40.334Z,128.70
2022-11-29T00:36:07.266Z,150.63
2022-11-29T00:38:33.812Z,122.05
2022-11-29T00:41:00.300Z,136.55
2022-11-29T00:43:26.828Z,155.77
2022-11-29T00:45:53.329Z,144.90
2022-11-29T00:48:19.858Z,146.18
2022-11-29T00:50:46.350Z,148.43
2022-11-29T00:53:12.921Z,158.23
2022-11-29T00:55:39.459Z,145.00
2022-11-29T00:58:06.180Z,174.43
2022-11-29T01:00:32.667Z,158.68
2022-11-29T01:02:59.162Z,142.80
2022-11-29T01:05:25.658Z,149.27
2022-11-29T01:07:52.250Z,162.00
2022-11-29T01:10:18.787Z,159.32
2022-11-29T01:12:45.364Z,152.88
2022-11-29T01:15:12.052Z,172.90
2022-11-29T01:17:39.474Z,145.05
2022-11-29T01:20:07.861Z,168.85
2022-11-29T01:22:35.618Z,179.00
2022-11-29T01:25:02.097Z,168.18
2022-11-29T01:27:29.396Z,181.18
2022-11-29T01:29:55.968Z,151.93
2022-11-29T01:32:22.470Z,158.63
2022-11-29T01:34:48.951Z,194.77
2022-11-29T01:37:15.529Z,177.98
2022-11-29T01:39:42.020Z,169.20
2022-11-29T01:42:12.672Z,152.80
2022-11-29T01:44:39.036Z,188.48
2022-11-29T01:47:05.553Z,178.80
2022-11-29T01:49:40.068Z,173.10
2022-11-29T01:52:09.504Z,174.45
2022-11-29T01:54:39.959Z,187.65
2022-11-29T01:57:07.535Z,198.60
2022-11-29T01:59:34.374Z,214.77
2022-11-29T02:02:06.668Z,199.82
2022-11-29T02:04:36.720Z,190.88
2022-11-29T02:07:03.834Z,212.93
2022-11-29T02:09:30.320Z,219.48
2022-11-29T02:12:09.371Z,221.65
2022-11-29T02:14:39.648Z,203.50
2022-11-29T02:17:24.036Z,166.35
2022-11-29T02:20:06.894Z,224.65
2022-11-29T02:22:53.233Z,268.58
2022-11-29T02:25:38.313Z,264.00
2022-11-29T02:28:13.648Z,288.15
2022-11-29T02:31:07.892Z,315.60
2022-11-29T02:33:48.923Z,325.08
2022-11-29T02:36:27.311Z,285.33
2022-11-29T02:39:36.679Z,320.20
2022-11-29T02:42:54.401Z,286.77
2022-11-29T02:45:51.686Z,294.30
2022-11-29T02:48:51.832Z,330.75
2022-11-29T02:51:52.319Z,339.10
2022-11-29T02:54:26.529Z,367.05
2022-11-29T02:57:19.475Z,345.85
2022-11-29T03:00:10.184Z,346.65
2022-11-29T03:02:52.461Z,344.40
2022-11-29T03:05:21.566Z,334.35
2022-11-29T03:08:30.052Z,350.08
2022-11-29T03:11:12.940Z,402.35
2022-11-29T03:13:52.396Z,358.05
2022-11-29T03:16:28.919Z,397.80
2022-11-29T03:19:13.856Z,394.23
2022-11-29T03:21:59.637Z,407.80
2022-11-29T03:24:31.901Z,412.30
2022-11-29T03:27:09.842Z,407.90
2022-11-29T03:29:40.568Z,472.65
2022-11-29T03:32:15.619Z,443.95
2022-11-29T03:35:20.435Z,419.55
2022-11-29T03:38:16.977Z,376.50
2022-11-29T03:41:00.024Z,382.52
2022-11-29T03:43:59.986Z,388.75
2022-11-29T03:46:29.099Z,405.02
2022-11-29T03:49:01.652Z,397.88
2022-11-29T03:51:37.880Z,436.65
2022-11-29T03:54:10.791Z,376.58
2022-11-29T03:56:39.847Z,405.40
2022-11-29T03:59:30.849Z,419.85
2022-11-29T04:02:30.145Z,407.35
2022-11-29T04:05:22.194Z,406.52
2022-11-29T04:08:27.759Z,433.23
2022-11-29T04:11:05.995Z,434.40
2022-11-29T04:13:45.090Z,371.85
2022-11-29T04:16:51.637Z,415.88
2022-11-29T04:19:48.966Z,423.90
2022-11-29T04:22:24.258Z,394.60
2022-11-29T04:25:12.580Z,453.73
2022-11-29T04:27:49.345Z,417.92
2022-11-29T04:30:25.546Z,396.92
2022-11-29T04:33:14.020Z,445.48
2022-11-29T04:35:55.490Z,457.23
2022-11-29T04:40:56.956Z,416.08
2022-11-29T04:43:54.255Z,401.80
2022-11-29T04:46:32.677Z,375.13
2022-11-29T04:49:07.361Z,367.05
2022-11-29T04:51:47.340Z,383.40
2022-11-29T04:54:22.638Z,386.15
2022-11-29T04:56:56.890Z,342.05
2022-11-29T04:59:44.380Z,326.85
2022-11-29T05:02:46.383Z,359.13
2022-11-29T05:05:24.598Z,360.23
2022-11-29T05:07:51.069Z,328.20
2022-11-29T05:10:36.258Z,357.58
2022-11-29T05:13:19.167Z,346.00
2022-11-29T05:15:45.590Z,346.60
2022-11-29T05:18:30.557Z,316.42
2022-11-29T05:21:08.785Z,347.92
2022-11-29T05:23:38.297Z,332.08
2022-11-29T05:26:10.385Z,367.92
2022-11-29T05:28:59.609Z,370.20
2022-11-29T05:31:41.322Z,360.27
2022-11-29T05:34:34.507Z,323.98
2022-11-29T05:37:27.546Z,347.75
2022-11-29T05:40:06.371Z,344.80
2022-11-29T05:42:51.866Z,313.63
2022-11-29T05:45:34.837Z,365.42
2022-11-29T05:48:44.889Z,454.65
2022-11-29T05:51:16.464Z,324.20
2022-11-29T05:53:51.496Z,307.90
2022-11-29T05:56:40.818Z,468.17
2022-11-29T05:59:13.256Z,261.00
2022-11-29T06:01:52.945Z,330.38
2022-11-29T06:04:45.550Z,264.35
2022-11-29T06:07:23.431Z,302.05
2022-11-29T06:10:01.688Z,256.02
2022-11-29T06:12:31.806Z,266.73
2022-11-29T06:15:35.787Z,313.65
2022-11-29T06:18:24.015Z,317.85
2022-11-29T06:21:00.104Z,317.15
2022-11-29T06:23:58.790Z,352.40
2022-11-29T06:26:51.912Z,365.27
2022-11-29T06:29:28.947Z,373.67
2022-11-29T06:32:11.423Z,362.08
2022-11-29T06:34:59.164Z,356.45
2022-11-29T06:37:38.568Z,317.92
2022-11-29T06:40:06.507Z,308.83
2022-11-29T06:42:32.982Z,323.83
2022-11-29T06:44:59.793Z,309.30
2022-11-29T06:47:32.883Z,332.42
2022-11-29T06:50:36.138Z,325.95
2022-11-29T06:53:24.455Z,353.95
2022-11-29T06:56:27.458Z,351.20
2022-11-29T06:59:03.963Z,329.10
2022-11-29T07:01:40.200Z,371.65
2022-11-29T07:04:20.107Z,358.60
2022-11-29T07:06:46.894Z,356.55
2022-11-29T07:09:16.179Z,316.50
2022-11-29T07:11:42.960Z,355.40
2022-11-29T07:14:09.958Z,348.17
2022-11-29T07:17:14.103Z,326.23
2022-11-29T07:20:18.886Z,324.70
2022-11-29T07:23:10.898Z,321.35
2022-11-29T07:25:55.774Z,328.30
2022-11-29T07:28:43.406Z,348.00
2022-11-29T07:31:28.415Z,311.42
2022-11-29T07:34:19.962Z,357.13
2022-11-29T07:39:24.105Z,306.52
2022-11-29T07:42:20.435Z,314.35
2022-11-29T07:44:59.412Z,325.55
2022-11-29T07:47:25.909Z,345.65
2022-11-29T07:49:52.459Z,330.00
2022-11-29T07:52:18.974Z,315.10
2022-11-29T07:54:45.988Z,348.42
2022-11-29T07:57:12.688Z,357.63
2022-11-29T07:59:39.196Z,347.48
2022-11-29T08:02:11.527Z,392.55
2022-11-29T08:04:44.981Z,341.27
2022-11-29T08:07:11.755Z,328.92
2022-11-29T08:09:38.295Z,335.35
2022-11-29T08:12:05.030Z,344.58
2022-11-29T08:14:33.231Z,316.42
2022-11-29T08:16:59.728Z,332.52
2022-11-29T08:19:26.254Z,300.00
2022-11-29T08:21:53.012Z,309.35
2022-11-29T08:24:19.560Z,317.35
2022-11-29T08:26:46.195Z,323.92
2022-11-29T08:29:12.847Z,307.42
2022-11-29T08:31:39.470Z,322.67
2022-11-29T08:34:07.169Z,295.55
2022-11-29T08:36:34.100Z,315.05
2022-11-29T08:39:09.177Z,291.60
2022-11-29T08:41:36.442Z,297.45
2022-11-29T08:44:05.063Z,302.88
2022-11-29T08:46:50.462Z,286.85
2022-11-29T08:49:16.983Z,298.13
2022-11-29T08:51:43.751Z,334.50
2022-11-29T08:54:10.366Z,320.63
2022-11-29T08:59:23.960Z,287.92
2022-11-29T09:01:50.818Z,292.67
2022-11-29T09:04:17.565Z,347.35
2022-11-29T09:06:44.401Z,301.40
2022-11-29T09:09:10.875Z,320.08
2022-11-29T09:11:37.454Z,280.77
2022-11-29T09:14:14.236Z,274.50
2022-11-29T09:16:40.866Z,321.92
2022-11-29T09:19:07.825Z,288.52
2022-11-29T09:21:38.635Z,287.70
2022-11-29T09:24:06.419Z,307.35
2022-11-29T09:26:35.811Z,290.90
2022-11-29T09:29:04.161Z,300.05
2022-11-29T09:31:32.339Z,294.50
2022-11-29T09:33:59.316Z,284.23
2022-11-29T09:36:28.810Z,249.88
2022-11-29T09:38:56.830Z,242.15
2022-11-29T09:41:37.534Z,240.05
2022-11-29T09:44:27.385Z,226.57
2022-11-29T09:47:02.028Z,230.52
2022-11-29T09:49:40.241Z,235.32
2022-11-29T09:52:15.843Z,226.98
2022-11-29T09:55:00.676Z,227.32
2022-11-29T09:57:28.510Z,235.15
2022-11-29T09:59:58.741Z,226.32
2022-11-29T10:02:32.995Z,236.27
2022-11-29T10:05:30.065Z,252.93
2022-11-29T10:08:02.039Z,239.68
2022-11-29T10:10:45.605Z,225.07
2022-11-29T10:13:25.334Z,234.25
2022-11-29T10:15:54.534Z,196.63
2022-11-29T10:18:29.227Z,209.15
2022-11-29T10:21:00.300Z,196.23
2022-11-29T10:23:32.029Z,193.07
2022-11-29T10:25:58.703Z,205.75
2022-11-29T10:28:30.996Z,197.45
2022-11-29T10:31:07.930Z,210.52
2022-11-29T10:33:37.138Z,223.48
2022-11-29T10:36:15.860Z,201.95
2022-11-29T10:38:44.060Z,188.05
2022-11-29T10:41:14.182Z,194.15
2022-11-29T10:43:40.726Z,188.70
2022-11-29T10:46:14.193Z,153.90
2022-11-29T10:48:40.735Z,171.40
2022-11-29T10:51:15.441Z,148.27
2022-11-29T10:53:42.459Z,145.63
2022-11-29T10:56:31.347Z,148.70
2022-11-29T10:59:09.283Z,139.90
2022-11-29T11:01:38.167Z,161.20
2022-11-29T11:04:07.455Z,162.95
2022-11-29T11:06:49.378Z,140.35
2022-11-29T11:09:28.220Z,143.68
2022-11-29T11:11:59.953Z,131.38
2022-11-29T11:14:29.206Z,131.50
2022-11-29T11:16:56.316Z,126.13
2022-11-29T11:19:29.857Z,134.25
2022-11-29T11:21:58.106Z,119.78
2022-11-29T11:24:30.229Z,127.22
2022-11-29T11:26:57.656Z,130.45
2022-11-29T11:29:36.281Z,140.77
2022-11-29T11:32:04.188Z,131.88
2022-11-29T11:34:35.675Z,121.68
2022-11-29T11:37:26.903Z,118.45
2022-11-29T11:39:57.160Z,136.80
2022-11-29T11:42:39.120Z,115.15
2022-11-29T11:45:11.630Z,126.57
2022-11-29T11:47:44.295Z,131.75
2022-11-29T11:50:16.597Z,132.70
2022-11-29T11:52:52.239Z,125.13
2022-11-29T11:55:21.480Z,137.18
2022-11-29T11:58:10.123Z,128.68
2022-11-29T12:01:07.361Z,136.43
2022-11-29T12:03:39.642Z,129.13
2022-11-29T12:06:06.086Z,123.45
2022-11-29T12:08:32.865Z,123.88
2022-11-29T12:11:07.242Z,144.50
2022-11-29T12:13:38.730Z,118.63
2022-11-29T12:16:13.164Z,121.82
2022-11-29T12:18:44.488Z,133.43
2022-11-29T12:23:47.622Z,136.25
2022-11-29T12:26:55.300Z,149.05
2022-11-29T12:29:13.264Z,135.80
2022-11-29T12:31:58.560Z,142.70
2022-11-29T12:34:42.775Z,134.27
2022-11-29T12:37:45.975Z,152.23
2022-11-29T12:40:22.334Z,136.65
2022-11-29T12:43:09.750Z,129.80
2022-11-29T12:46:04.878Z,132.75
2022-11-29T12:49:01.625Z,112.28
2022-11-29T12:51:37.012Z,116.38
2022-11-29T12:54:15.865Z,122.35
2022-11-29T12:57:08.883Z,130.43
2022-11-29T12:59:44.130Z,116.50
2022-11-29T13:02:32.189Z,114.07
2022-11-29T13:05:04.013Z,112.03
2022-11-29T13:07:45.493Z,145.98
2022-11-29T13:10:43.131Z,122.90
2022-11-29T13:13:32.131Z,111.50
2022-11-29T13:16:06.742Z,109.75
2022-11-29T13:18:50.740Z,110.38
2022-11-29T13:21:23.994Z,113.80
2022-11-29T13:24:09.694Z,119.07
2022-11-29T13:26:38.513Z,116.72
2022-11-29T13:29:06.572Z,119.18
2022-11-29T13:31:33.250Z,122.07
2022-11-29T13:34:09.658Z,115.57
2022-11-29T13:36:48.389Z,119.85
2022-11-29T13:39:33.603Z,125.68
2022-11-29T13:42:37.206Z,108.13
2022-11-29T13:45:24.025Z,108.90
2022-11-29T13:47:59.517Z,118.13
2022-11-29T13:50:39.626Z,101.10
2022-11-29T13:53:14.146Z,105.95
2022-11-29T13:56:00.043Z,118.93
2022-11-29T13:58:29.232Z,125.18
2022-11-29T14:01:05.688Z,140.75
2022-11-29T14:03:43.935Z,124.63
2022-11-29T14:06:15.445Z,142.73
2022-11-29T14:11:59.417Z,138.40
2022-11-29T14:14:48.462Z,161.70
2022-11-29T14:17:34.956Z,142.82
2022-11-29T14:20:22.930Z,155.43
2022-11-29T14:23:04.686Z,143.15
2022-11-29T14:25:50.999Z,152.90
2022-11-29T14:28:17.848Z,148.30
2022-11-29T14:30:44.257Z,144.40
2022-11-29T14:33:13.517Z,145.93
2022-11-29T14:35:44.223Z,144.68
2022-11-29T14:38:10.623Z,133.68
2022-11-29T14:40:48.356Z,132.10
2022-11-29T14:43:36.111Z,142.75
2022-11-29T14:46:11.399Z,130.30
2022-11-29T14:48:38.207Z,136.23
2022-11-29T14:51:12.762Z,116.90
2022-11-29T14:53:40.914Z,123.03
2022-11-29T14:56:42.990Z,117.70
2022-11-29T14:59:46.992Z,129.35
2022-11-29T15:02:34.787Z,110.28
2022-11-29T15:05:22.654Z,113.38
2022-11-29T15:08:00.947Z,112.03
2022-11-29T15:10:33.526Z,117.20
2022-11-29T15:13:00.542Z,112.95
2022-11-29T15:15:45.509Z,114.38
2022-11-29T15:18:27.839Z,109.32
2022-11-29T15:21:09.012Z,113.75
2022-11-29T15:23:42.734Z,123.43
2022-11-29T15:26:20.622Z,122.28
2022-11-29T15:28:47.088Z,124.35
2022-11-29T15:31:16.433Z,116.82
2022-11-29T15:33:44.272Z,122.65
2022-11-29T15:36:21.517Z,113.03
2022-11-29T15:38:50.733Z,116.35
2022-11-29T15:41:31.602Z,95.10
2022-11-29T15:44:05.689Z,119.05
2022-11-29T15:46:34.647Z,95.07
2022-11-29T15:49:27.598Z,92.53
2022-11-29T15:51:57.206Z,106.82
2022-11-29T15:54:33.890Z,92.75
2022-11-29T15:57:03.986Z,92.32
2022-11-29T15:59:37.953Z,103.32
2022-11-29T16:02:27.692Z,106.35
2022-11-29T16:04:57.752Z,90.05
2022-11-29T16:07:25.892Z,89.25
2022-11-29T16:09:59.341Z,93.63
2022-11-29T16:12:26.378Z,107.50
2022-11-29T16:14:57.727Z,94.20
2022-11-29T16:20:13.950Z,105.93
2022-11-29T16:22:40.484Z,93.68
2022-11-29T16:25:16.336Z,104.47
2022-11-29T16:27:42.986Z,106.22
2022-11-29T16:30:23.238Z,116.20
2022-11-29T16:33:00.410Z,103.50
2022-11-29T16:35:32.988Z,93.05
2022-11-29T16:38:03.618Z,87.10
2022-11-29T16:40:32.333Z,88.93
2022-11-29T16:43:04.613Z,82.40
2022-11-29T16:45:40.861Z,89.15
2022-11-29T16:48:22.341Z,80.78
2022-11-29T16:53:36.053Z,78.43
2022-11-29T16:56:08.181Z,82.03
2022-11-29T16:58:37.550Z,92.97
2022-11-29T17:01:26.049Z,98.75
2022-11-29T17:03:53.561Z,102.50
2022-11-29T17:06:22.668Z,114.00
2022-11-29T17:08:54.855Z,107.93
2022-11-29T17:11:21.889Z,129.23
2022-11-29T17:13:50.041Z,113.07
2022-11-29T17:16:20.801Z,137.05
2022-11-29T17:18:48.013Z,131.25
2022-11-29T17:21:21.574Z,127.97
2022-11-29T17:23:48.551Z,141.68
2022-11-29T17:26:15.517Z,133.57
2022-11-29T17:28:43.253Z,156.95
2022-11-29T17:31:15.039Z,144.82
2022-11-29T17:33:41.713Z,136.00
2022-11-29T17:36:10.621Z,139.82
2022-11-29T17:38:37.591Z,147.50
2022-11-29T17:41:14.832Z,135.35
2022-11-29T17:43:41.412Z,137.57
2022-11-29T17:46:11.665Z,138.38
2022-11-29T17:48:41.300Z,142.67
2022-11-29T17:51:28.905Z,137.77
2022-11-29T17:53:54.864Z,147.77
2022-11-29T17:56:24.601Z,157.30
2022-11-29T17:58:52.829Z,139.88
2022-11-29T18:01:23.972Z,142.43
2022-11-29T18:06:25.854Z,142.68
2022-11-29T18:08:57.694Z,154.20
2022-11-29T18:11:29.897Z,177.25
2022-11-29T18:13:57.856Z,152.32
2022-11-29T18:16:29.286Z,157.43
2022-11-29T18:19:11.167Z,149.52
2022-11-29T18:21:38.072Z,157.63
2022-11-29T18:24:06.202Z,150.63
2022-11-29T18:26:33.963Z,167.73
2022-11-29T18:29:00.950Z,156.80
2022-11-29T18:31:32.393Z,183.55
2022-11-29T18:34:00.991Z,166.32
2022-11-29T18:36:32.169Z,201.90
2022-11-29T18:41:30.499Z,209.73
2022-11-29T18:43:59.406Z,171.15
2022-11-29T18:46:27.028Z,196.40
2022-11-29T18:48:53.538Z,178.23
2022-11-29T18:51:20.538Z,188.80
2022-11-29T18:53:47.415Z,193.00
2022-11-29T18:56:16.535Z,199.43
2022-11-29T18:58:44.494Z,200.63
2022-11-29T19:01:15.880Z,168.70
2022-11-29T19:03:44.731Z,160.48
2022-11-29T19:06:16.493Z,198.52
2022-11-29T19:08:43.254Z,177.50
2022-11-29T19:11:12.134Z,245.02
2022-11-29T19:13:39.285Z,296.23
2022-11-29T19:16:12.960Z,141.95
2022-11-29T19:18:39.834Z,181.25
2022-11-29T19:21:16.595Z,132.93
2022-11-29T19:23:44.070Z,131.35
2022-11-29T19:26:12.542Z,142.15
2022-11-29T19:28:44.568Z,143.05
2022-11-29T19:31:13.149Z,146.20
2022-11-29T19:33:41.339Z,147.30
2022-11-29T19:36:12.035Z,187.65
2022-11-29T19:38:39.311Z,204.23
2022-11-29T19:41:10.395Z,199.07
2022-11-29T19:43:37.033Z,205.68
2022-11-29T19:46:15.343Z,193.93
2022-11-29T19:48:42.042Z,211.48
2022-11-29T19:51:09.219Z,221.95
2022-11-29T19:53:36.464Z,226.98
2022-11-29T19:56:07.683Z,215.05
2022-11-29T20:01:07.921Z,186.60
2022-11-29T20:03:35.024Z,197.32
2022-11-29T20:06:02.194Z,186.18
2022-11-29T20:08:29.286Z,195.75
2022-11-29T20:10:55.855Z,198.27
2022-11-29T20:13:22.611Z,201.70
2022-11-29T20:15:49.468Z,203.23
2022-11-29T20:18:16.051Z,196.02
2022-11-29T20:20:42.636Z,222.60
2022-11-29T20:23:09.168Z,210.70
2022-11-29T20:25:36.402Z,219.27
2022-11-29T20:28:04.051Z,216.70
2022-11-29T20:30:30.528Z,217.85
2022-11-29T20:32:57.311Z,213.20
2022-11-29T20:35:23.998Z,201.77
2022-11-29T20:38:01.784Z,233.32
2022-11-29T20:40:40.128Z,192.10
2022-11-29T20:43:13.545Z,216.32
2022-11-29T20:45:40.220Z,233.73
2022-11-29T20:48:14.003Z,211.88
2022-11-29T20:50:43.154Z,218.15
2022-11-29T20:53:21.858Z,206.70
2022-11-29T20:55:48.866Z,214.55
2022-11-29T20:58:16.135Z,224.45
2022-11-29T21:00:42.666Z,230.45
2022-11-29T21:03:12.993Z,251.77
2022-11-29T21:05:39.522Z,247.20
2022-11-29T21:08:06.100Z,219.38
2022-11-29T21:10:33.284Z,237.13
2022-11-29T21:13:00.163Z,260.45
2022-11-29T21:15:27.025Z,254.68
2022-11-29T21:17:53.771Z,258.75
2022-11-29T21:20:25.518Z,226.55
2022-11-29T21:23:05.396Z,243.02
2022-11-29T21:25:45.302Z,256.38
2022-11-29T21:28:14.144Z,246.63
2022-11-29T21:30:41.527Z,282.67
2022-11-29T21:33:08.579Z,283.67
2022-11-29T21:35:37.383Z,282.85
2022-11-29T21:38:03.941Z,269.10
2022-11-29T21:40:31.581Z,272.88
2022-11-29T21:42:58.283Z,283.55
2022-11-29T21:45:24.816Z,262.45
2022-11-29T21:47:51.337Z,283.67
2022-11-29T21:50:18.387Z,294.13
2022-11-29T21:52:44.980Z,290.13
2022-11-29T21:55:12.156Z,312.83
2022-11-29T21:57:38.855Z,298.23
2022-11-29T22:00:06.179Z,288.33
2022-11-29T22:02:33.376Z,292.20
2022-11-29T22:04:59.934Z,278.67
2022-11-29T22:07:27.107Z,297.00
2022-11-29T22:09:53.620Z,281.10
2022-11-29T22:12:33.728Z,306.23
2022-11-29T22:15:00.531Z,294.10
2022-11-29T22:17:27.083Z,305.23
2022-11-29T22:19:54.367Z,328.88
2022-11-29T22:22:21.051Z,295.75
2022-11-29T22:24:48.039Z,320.55
2022-11-29T22:27:14.730Z,303.00
2022-11-29T22:29:41.222Z,313.70
2022-11-29T22:32:07.708Z,333.48
2022-11-29T22:34:34.214Z,317.75
2022-11-29T22:37:00.689Z,322.85
2022-11-29T22:39:27.283Z,316.38
2022-11-29T22:41:55.037Z,327.27
2022-11-29T22:44:25.728Z,323.75
2022-11-29T22:46:52.370Z,337.95
2022-11-29T22:49:19.064Z,334.77
2022-11-29T22:51:45.582Z,352.80
2022-11-29T22:54:15.281Z,346.65
2022-11-29T22:56:42.837Z,334.50
2022-11-29T22:59:09.762Z,380.35
2022-11-29T23:01:39.135Z,362.45
2022-11-29T23:04:09.216Z,343.27
2022-11-29T23:06:37.907Z,345.20
2022-11-29T23:09:15.788Z,359.65
2022-11-29T23:11:47.782Z,376.52
2022-11-29T23:14:14.365Z,352.88
2022-11-29T23:16:40.959Z,373.25
2022-11-29T23:19:07.804Z,411.50
2022-11-29T23:21:36.507Z,378.27
2022-11-29T23:24:03.783Z,403.17
2022-11-29T23:26:40.069Z,387.55
2022-11-29T23:29:08.552Z,408.80
2022-11-29T23:31:35.116Z,388.35
2022-11-29T23:34:02.217Z,395.13
2022-11-29T23:36:28.915Z,423.63
2022-11-29T23:38:55.918Z,366.80
2022-11-29T23:41:22.451Z,370.05
2022-11-29T23:43:48.996Z,423.85
2022-11-29T23:46:20.443Z,373.27
2022-11-29T23:48:47.493Z,384.58
2022-11-29T23:51:14.039Z,365.38
2022-11-29T23:53:41.045Z,343.98
2022-11-29T23:56:11.565Z,407.58
2022-11-29T23:58:38.393Z,359.80
